Paris, Canada
Current Conditions -  °F | °C
As of 10:18 AM on Saturday 22 Nov 2014 (Local Time) from CYKF Reporting Station
Light Rain Light Rain  
Wind Chill: 23°   Ceiling: 1600
Heat Index: 34°   Visibility: 9mi
Dew Point: 28°   Wind: 17mph
Humidity: 81%   Direction: 210°SSW
Pressure: 30.04"   Gusts: 23mph
Location:  43.2°N, 80.38°W
Report Text: CYKF 221518Z AUTO 21015G20KT 9SM -RA OVC016 01/M02 A3004 RMK SLP188
Loading
Personal Weather Stations






























Interactive Weather Map New forecast layout! Learn more

10-Day Weather Forecast

Advertisements
Track Severe Weather on mobile